sensor_id;sensor_type;location;lat;lon;timestamp;P1;durP1;ratioP1;P2;durP2;ratioP2
20104;SDS011;10212;42.714;23.310;2023-10-13T06:37:12;31.10;;;15.45;;
20104;SDS011;10212;42.714;23.310;2023-10-13T06:47:26;33.28;;;12.25;;
20104;SDS011;10212;42.714;23.310;2023-10-13T06:57:27;40.83;;;14.70;;
20104;SDS011;10212;42.714;23.310;2023-10-13T07:07:35;30.45;;;14.48;;
20104;SDS011;10212;42.714;23.310;2023-10-13T07:17:36;34.17;;;15.23;;
20104;SDS011;10212;42.714;23.310;2023-10-13T07:27:40;31.33;;;18.65;;
20104;SDS011;10212;42.714;23.310;2023-10-13T07:37:40;25.60;;;14.40;;
20104;SDS011;10212;42.714;23.310;2023-10-13T07:47:43;61.88;;;17.70;;
20104;SDS011;10212;42.714;23.310;2023-10-13T07:57:44;28.13;;;14.50;;
20104;SDS011;10212;42.714;23.310;2023-10-13T08:07:54;30.63;;;13.88;;
20104;SDS011;10212;42.714;23.310;2023-10-13T08:17:56;29.45;;;13.90;;
20104;SDS011;10212;42.714;23.310;2023-10-13T08:27:58;23.80;;;13.13;;
20104;SDS011;10212;42.714;23.310;2023-10-13T08:48:43;25.88;;;15.70;;
20104;SDS011;10212;42.714;23.310;2023-10-13T08:58:48;28.23;;;14.80;;
20104;SDS011;10212;42.714;23.310;2023-10-13T09:09:03;29.40;;;15.10;;
20104;SDS011;10212;42.714;23.310;2023-10-13T09:19:05;24.92;;;14.57;;
20104;SDS011;10212;42.714;23.310;2023-10-13T09:29:14;20.92;;;12.25;;
20104;SDS011;10212;42.714;23.310;2023-10-13T09:39:18;24.70;;;12.50;;
20104;SDS011;10212;42.714;23.310;2023-10-13T09:49:30;21.15;;;10.23;;
20104;SDS011;10212;42.714;23.310;2023-10-13T09:59:45;18.15;;;9.63;;
20104;SDS011;10212;42.714;23.310;2023-10-13T10:10:00;19.87;;;7.80;;
20104;SDS011;10212;42.714;23.310;2023-10-13T10:20:03;18.48;;;7.47;;
20104;SDS011;10212;42.714;23.310;2023-10-13T10:30:23;11.13;;;5.85;;
20104;SDS011;10212;42.714;23.310;2023-10-13T10:40:27;14.48;;;6.43;;
20104;SDS011;10212;42.714;23.310;2023-10-13T10:50:53;9.00;;;4.22;;
20104;SDS011;10212;42.714;23.310;2023-10-13T11:01:06;8.05;;;4.07;;
20104;SDS011;10212;42.714;23.310;2023-10-13T11:11:30;7.05;;;3.75;;
20104;SDS011;10212;42.714;23.310;2023-10-13T11:21:35;8.85;;;3.40;;
20104;SDS011;10212;42.714;23.310;2023-10-13T11:31:37;14.15;;;7.25;;
20104;SDS011;10212;42.714;23.310;2023-10-13T11:41:37;9.93;;;2.80;;
20104;SDS011;10212;42.714;23.310;2023-10-13T11:51:46;9.57;;;3.67;;
20104;SDS011;10212;42.714;23.310;2023-10-13T12:01:48;7.03;;;2.70;;
20104;SDS011;10212;42.714;23.310;2023-10-13T12:12:07;14.10;;;2.67;;
20104;SDS011;10212;42.714;23.310;2023-10-13T12:22:09;7.85;;;2.67;;
20104;SDS011;10212;42.714;23.310;2023-10-13T12:32:17;6.93;;;2.53;;
20104;SDS011;10212;42.714;23.310;2023-10-13T12:42:30;6.13;;;2.60;;
20104;SDS011;10212;42.714;23.310;2023-10-13T12:52:49;6.45;;;2.60;;
20104;SDS011;10212;42.714;23.310;2023-10-13T13:02:50;5.65;;;2.78;;
20104;SDS011;10212;42.714;23.310;2023-10-13T13:12:52;9.20;;;3.00;;
20104;SDS011;10212;42.714;23.310;2023-10-13T13:22:53;6.93;;;2.65;;
20104;SDS011;10212;42.714;23.310;2023-10-13T13:32:54;8.65;;;2.92;;
20104;SDS011;10212;42.714;23.310;2023-10-13T13:42:55;10.73;;;3.07;;
20104;SDS011;10212;42.714;23.310;2023-10-13T13:52:57;13.25;;;4.50;;
20104;SDS011;10212;42.714;23.310;2023-10-13T14:02:57;33.30;;;7.72;;
20104;SDS011;10212;42.714;23.310;2023-10-13T14:13:01;9.88;;;3.17;;
20104;SDS011;10212;42.714;23.310;2023-10-13T14:23:14;12.48;;;5.10;;
20104;SDS011;10212;42.714;23.310;2023-10-13T14:33:14;13.27;;;5.40;;
20104;SDS011;10212;42.714;23.310;2023-10-13T14:43:15;11.50;;;4.23;;
20104;SDS011;10212;42.714;23.310;2023-10-13T14:53:15;8.23;;;4.18;;
20104;SDS011;10212;42.714;23.310;2023-10-13T15:03:19;15.73;;;6.40;;
20104;SDS011;10212;42.714;23.310;2023-10-13T15:13:20;7.07;;;3.70;;
20104;SDS011;10212;42.714;23.310;2023-10-13T15:23:22;8.43;;;3.40;;
20104;SDS011;10212;42.714;23.310;2023-10-13T15:33:25;6.50;;;3.80;;
20104;SDS011;10212;42.714;23.310;2023-10-13T15:43:25;10.45;;;5.65;;
20104;SDS011;10212;42.714;23.310;2023-10-13T15:53:28;14.73;;;5.05;;
20104;SDS011;10212;42.714;23.310;2023-10-13T16:03:29;14.18;;;4.90;;
20104;SDS011;10212;42.714;23.310;2023-10-13T16:13:29;14.10;;;5.37;;
20104;SDS011;10212;42.714;23.310;2023-10-13T16:23:31;23.65;;;5.78;;
20104;SDS011;10212;42.714;23.310;2023-10-13T16:33:31;14.20;;;4.85;;
20104;SDS011;10212;42.714;23.310;2023-10-13T16:43:35;11.30;;;4.40;;
20104;SDS011;10212;42.714;23.310;2023-10-13T16:53:36;11.00;;;4.72;;
20104;SDS011;10212;42.714;23.310;2023-10-13T17:03:37;14.07;;;4.65;;
20104;SDS011;10212;42.714;23.310;2023-10-13T17:13:38;15.00;;;6.38;;
20104;SDS011;10212;42.714;23.310;2023-10-13T17:23:39;21.33;;;7.85;;
20104;SDS011;10212;42.714;23.310;2023-10-13T17:33:40;33.73;;;8.80;;
20104;SDS011;10212;42.714;23.310;2023-10-13T17:43:40;38.17;;;11.88;;
20104;SDS011;10212;42.714;23.310;2023-10-13T17:53:42;37.38;;;12.57;;
20104;SDS011;10212;42.714;23.310;2023-10-13T18:03:53;35.40;;;12.10;;
20104;SDS011;10212;42.714;23.310;2023-10-13T18:13:53;34.50;;;10.55;;
20104;SDS011;10212;42.714;23.310;2023-10-13T18:23:54;46.28;;;11.55;;
20104;SDS011;10212;42.714;23.310;2023-10-13T18:33:55;29.98;;;10.85;;
20104;SDS011;10212;42.714;23.310;2023-10-13T18:43:58;29.90;;;10.70;;
20104;SDS011;10212;42.714;23.310;2023-10-13T18:53:59;30.15;;;8.82;;
20104;SDS011;10212;42.714;23.310;2023-10-13T19:04:02;30.20;;;8.85;;
20104;SDS011;10212;42.714;23.310;2023-10-13T19:14:06;28.38;;;11.68;;
20104;SDS011;10212;42.714;23.310;2023-10-13T19:24:10;35.90;;;14.57;;
20104;SDS011;10212;42.714;23.310;2023-10-13T19:34:11;43.30;;;16.20;;
20104;SDS011;10212;42.714;23.310;2023-10-13T19:44:17;40.42;;;15.27;;
20104;SDS011;10212;42.714;23.310;2023-10-13T19:54:18;34.30;;;14.15;;
20104;SDS011;10212;42.714;23.310;2023-10-13T20:04:18;30.08;;;13.38;;
20104;SDS011;10212;42.714;23.310;2023-10-13T20:14:19;41.90;;;14.30;;
20104;SDS011;10212;42.714;23.310;2023-10-13T20:24:21;30.98;;;13.20;;
20104;SDS011;10212;42.714;23.310;2023-10-13T20:34:24;25.58;;;10.25;;
20104;SDS011;10212;42.714;23.310;2023-10-13T20:44:28;20.67;;;8.82;;
20104;SDS011;10212;42.714;23.310;2023-10-13T20:54:29;22.27;;;9.05;;
20104;SDS011;10212;42.714;23.310;2023-10-13T21:04:30;19.25;;;9.00;;
20104;SDS011;10212;42.714;23.310;2023-10-13T21:14:31;24.70;;;9.68;;
20104;SDS011;10212;42.714;23.310;2023-10-13T21:24:34;19.13;;;8.93;;
20104;SDS011;10212;42.714;23.310;2023-10-13T21:34:36;18.30;;;8.48;;
20104;SDS011;10212;42.714;23.310;2023-10-13T21:44:37;18.58;;;8.70;;
20104;SDS011;10212;42.714;23.310;2023-10-13T21:54:37;21.35;;;8.63;;
20104;SDS011;10212;42.714;23.310;2023-10-13T22:04:37;20.02;;;8.23;;
20104;SDS011;10212;42.714;23.310;2023-10-13T22:14:38;18.58;;;8.52;;
20104;SDS011;10212;42.714;23.310;2023-10-13T22:24:38;32.13;;;8.48;;
20104;SDS011;10212;42.714;23.310;2023-10-13T22:34:42;18.92;;;8.00;;
20104;SDS011;10212;42.714;23.310;2023-10-13T22:44:42;20.35;;;7.78;;
20104;SDS011;10212;42.714;23.310;2023-10-13T22:54:43;20.95;;;7.72;;
20104;SDS011;10212;42.714;23.310;2023-10-13T23:04:44;19.48;;;7.68;;
20104;SDS011;10212;42.714;23.310;2023-10-13T23:14:51;18.35;;;7.63;;
20104;SDS011;10212;42.714;23.310;2023-10-13T23:24:51;18.67;;;7.57;;
20104;SDS011;10212;42.714;23.310;2023-10-13T23:34:51;15.27;;;7.32;;
20104;SDS011;10212;42.714;23.310;2023-10-13T23:44:52;16.70;;;6.75;;
20104;SDS011;10212;42.714;23.310;2023-10-13T23:55:06;13.55;;;6.32;;
